Terminal Aerodrome Forecast
Issued by NWS

Home | Current Version | Previous Version | Text Only | Print | Product List | Glossary On
Versions: 1 2 3 4 5 6 7 8 9 10 11 12 13 14 15
000
FTUS46 KMTR 270544 AAA
TAFSNS
TAF AMD
KSNS 270544Z 2706/2806 VRB04KT P6SM VCSH BKN060 BKN070
      TEMPO 2706/2709 -RA BKN040
     FM270900 VRB04KT P6SM VCSH BKN050
      TEMPO 2709/2712 -RA BKN040
     FM271200 19004KT P6SM VCSH FEW025 BKN060
      TEMPO 2712/2715 -RA BKN040
     FM271500 12005KT P6SM BKN060
     FM271800 12006KT P6SM SCT100
     FM272100 27010KT P6SM SCT100=

USA.gov is the U.S. government's official web portal to all federal, state and local government web resources and services.